Time;durP1;ratioP1;P1;durP2;ratioP2;P2;SDS_P1;SDS_P2;PMS_P1;PMS_P2;Temp;Humidity;BMP_temperature;BMP_pressure;BME280_temperature;BME280_humidity;BME280_pressure;Samples;Min_cycle;Max_cycle;Signal;HPM_P1;HPM_P2
2022/10/22 00:02:00;;;;;;;10.73;7.32;;;;;;;7.43;90.89;100234.06;4957457;27;20044;-65
2022/10/22 00:04:55;;;;;;;12.88;7.60;;;;;;;7.44;91.27;100222.81;4967479;27;20050;-65
2022/10/22 00:07:38;;;;;;;11.48;7.45;;;;;;;7.48;90.68;100234.91;4967127;27;20075;-65
2022/10/22 00:10:31;;;;;;;12.95;7.68;;;;;;;7.46;90.82;100225.38;4927151;27;20047;-65
2022/10/22 00:13:28;;;;;;;10.90;6.93;;;;;;;7.48;90.24;100215.84;4926232;27;20074;-66
2022/10/22 00:16:10;;;;;;;11.05;7.35;;;;;;;7.47;90.26;100211.53;4987888;27;20051;-67
2022/10/22 00:18:50;;;;;;;12.32;7.35;;;;;;;7.46;90.06;100189.88;4984310;27;20091;-66
2022/10/22 00:21:42;;;;;;;10.67;5.93;;;;;;;7.53;90.12;100185.50;4974572;27;20075;-65
2022/10/22 00:24:43;;;;;;;9.20;7.18;;;;;;;7.64;90.21;100183.72;4936955;27;20793;-65
2022/10/22 00:27:34;;;;;;;12.50;6.68;;;;;;;7.69;89.71;100181.94;4969545;27;20556;-65
2022/10/22 00:30:19;;;;;;;7.93;6.35;;;;;;;7.71;89.35;100179.31;4964496;27;20135;-66
2022/10/22 00:33:15;;;;;;;7.97;6.35;;;;;;;7.80;88.98;100173.22;4980602;27;20050;-66
2022/10/22 00:36:06;;;;;;;7.70;5.60;;;;;;;7.83;87.61;100157.59;4978637;27;20176;-66
2022/10/22 00:38:45;;;;;;;7.35;5.78;;;;;;;8.12;87.50;100171.25;4979390;27;20074;-66
2022/10/22 00:41:41;;;;;;;7.85;5.60;;;;;;;8.14;85.67;100169.50;4952357;27;21063;-66
2022/10/22 00:45:09;;;;;;;7.55;5.60;;;;;;;8.31;85.49;100160.66;4966315;27;20056;-65
2022/10/22 00:48:03;;;;;;;8.77;5.57;;;;;;;8.46;84.77;100165.75;4933472;27;20059;-66
2022/10/22 00:51:03;;;;;;;8.70;5.75;;;;;;;8.54;84.33;100158.75;4957996;28;20060;-65
2022/10/22 00:54:11;;;;;;;7.60;5.60;;;;;;;8.47;83.99;100131.06;4922268;27;20043;-65
2022/10/22 00:56:59;;;;;;;11.88;6.25;;;;;;;8.56;84.15;100146.59;4924430;28;20077;-65
2022/10/22 01:02:34;;;;;;;9.30;6.70;;;;;;;8.49;84.97;100144.94;4945385;27;20469;-65
2022/10/22 01:05:24;;;;;;;8.15;6.35;;;;;;;8.32;85.78;100132.03;4957488;27;20054;-65
2022/10/22 01:08:32;;;;;;;8.98;5.93;;;;;;;8.31;86.02;100145.03;4989171;27;20043;-65
2022/10/22 01:11:24;;;;;;;12.40;7.00;;;;;;;8.35;86.38;100136.34;4952883;27;20341;-65
2022/10/22 01:14:33;;;;;;;9.10;6.13;;;;;;;8.28;86.07;100119.06;4972699;27;20049;-66
2022/10/22 01:20:17;;;;;;;8.27;6.10;;;;;;;8.34;86.37;100126.81;4968885;27;20059;-65
2022/10/22 01:23:12;;;;;;;9.98;6.20;;;;;;;8.31;87.55;100124.22;4959091;27;20053;-65
2022/10/22 01:26:02;;;;;;;7.70;5.43;;;;;;;8.39;87.29;100112.00;4895892;27;20045;-65
2022/10/22 01:29:05;;;;;;;8.10;5.28;;;;;;;8.43;87.12;100111.13;4992115;27;20347;-64
2022/10/22 01:31:45;;;;;;;9.25;5.57;;;;;;;8.39;86.65;100107.69;4957197;27;20054;-64
2022/10/22 01:34:32;;;;;;;8.93;5.80;;;;;;;8.37;86.39;100103.34;4977903;27;20061;-65
2022/10/22 01:37:24;;;;;;;7.13;5.65;;;;;;;8.35;86.62;100116.38;4977060;28;20282;-65
2022/10/22 01:40:12;;;;;;;9.73;6.05;;;;;;;8.27;87.07;100107.78;4949119;28;20431;-65
2022/10/22 01:43:20;;;;;;;12.35;6.20;;;;;;;8.26;87.72;100105.19;4936680;28;21228;-66
2022/10/22 01:46:03;;;;;;;8.07;5.72;;;;;;;8.27;88.08;100101.72;4926646;27;20042;-65
2022/10/22 01:48:56;;;;;;;10.50;6.50;;;;;;;8.19;88.54;100094.84;4912339;28;20094;-65
2022/10/22 01:51:54;;;;;;;9.88;6.80;;;;;;;8.17;88.85;100106.16;4907471;28;20075;-65
2022/10/22 01:55:12;;;;;;;9.85;6.28;;;;;;;8.12;88.30;100103.56;4941103;28;20210;-65
2022/10/22 01:57:58;;;;;;;11.13;6.55;;;;;;;8.16;89.10;100105.28;4934738;28;20075;-64
2022/10/22 02:01:06;;;;;;;10.77;6.55;;;;;;;8.24;88.17;100107.81;4954026;27;20047;-65
2022/10/22 02:03:59;;;;;;;11.07;6.88;;;;;;;8.35;88.40;100116.38;4961727;27;20037;-65
2022/10/22 02:06:50;;;;;;;14.98;8.50;;;;;;;8.45;87.43;100111.13;4988577;27;20074;-66
2022/10/22 02:09:36;;;;;;;10.45;7.00;;;;;;;8.31;86.27;100108.59;4967191;27;20039;-65
2022/10/22 02:12:50;;;;;;;11.45;7.93;;;;;;;7.86;87.57;100025.78;4969120;27;20037;-66
2022/10/22 02:15:56;;;;;;;10.98;7.30;;;;;;;8.43;88.03;100108.50;4923472;28;20035;-65
2022/10/22 02:18:57;;;;;;;11.50;7.22;;;;;;;8.43;87.36;100114.59;4955829;27;20078;-65
2022/10/22 02:21:33;;;;;;;12.82;8.30;;;;;;;8.43;87.51;100129.34;4976370;27;20047;-66
2022/10/22 02:24:14;;;;;;;16.23;10.02;;;;;;;8.35;87.43;100136.34;4930496;28;20057;-65
2022/10/22 02:27:04;;;;;;;15.53;10.83;;;;;;;8.19;88.45;100131.28;4920938;27;20133;-66
2022/10/22 02:29:48;;;;;;;17.92;10.60;;;;;;;8.01;89.16;100108.00;4922150;27;20276;-66
2022/10/22 02:32:37;;;;;;;15.45;10.27;;;;;;;7.93;89.91;100102.00;4987088;27;20095;-65
2022/10/22 02:35:24;;;;;;;18.85;9.35;;;;;;;8.10;90.46;100128.75;4972686;28;20262;-66
2022/10/22 02:38:02;;;;;;;;;;;;;;;8.18;89.79;100129.53;4962886;27;20047;-65
2022/10/22 02:41:16;;;;;;;;;;;;;;;8.26;90.34;100121.66;4952000;28;19937;-65
2022/10/22 02:44:06;;;;;;;14.23;8.65;;;;;;;8.39;88.98;100122.44;4941260;27;19927;-65
2022/10/22 02:49:32;;;;;;;13.65;8.07;;;;;;;8.61;87.65;100108.34;4923368;28;20043;-65
2022/10/22 02:52:35;;;;;;;11.48;7.63;;;;;;;8.66;86.96;100104.81;4978614;27;20071;-65
2022/10/22 02:55:45;;;;;;;15.77;7.63;;;;;;;8.60;85.55;100101.38;4972646;27;20108;-65
2022/10/22 03:01:32;;;;;;;10.50;6.38;;;;;;;8.72;85.42;100115.19;4960972;27;20049;-66
2022/10/22 03:04:18;;;;;;;12.30;6.55;;;;;;;8.67;85.96;100116.97;4961276;27;20044;-65
2022/10/22 03:07:34;;;;;;;9.45;6.40;;;;;;;8.27;86.47;100065.28;4975128;27;20047;-64
2022/10/22 03:10:12;;;;;;;10.23;6.45;;;;;;;8.21;87.20;100074.88;4919539;28;20200;-65
2022/10/22 03:13:01;;;;;;;16.58;8.48;;;;;;;8.46;86.37;100108.47;4960620;27;20045;-62
2022/10/22 03:16:02;;;;;;;13.07;7.47;;;;;;;8.56;85.94;100094.50;4954091;27;20047;-63
2022/10/22 03:18:45;;;;;;;8.80;6.20;;;;;;;8.67;85.76;100098.72;4954941;27;20055;-63
2022/10/22 03:21:30;;;;;;;11.50;5.90;;;;;;;8.75;84.16;100089.09;4962336;27;20035;-63
2022/10/22 03:24:19;;;;;;;13.90;7.32;;;;;;;8.79;83.86;100090.78;4964562;27;20053;-65
2022/10/22 03:26:59;;;;;;;10.25;6.30;;;;;;;8.74;82.68;100076.94;4976727;28;20071;-63
2022/10/22 03:32:39;;;;;;;9.38;5.78;;;;;;;8.59;83.16;100073.63;4964213;27;20113;-62
2022/10/22 03:35:48;;;;;;;13.52;6.72;;;;;;;8.61;83.00;100082.31;4959134;27;20048;-64
2022/10/22 03:38:43;;;;;;;9.00;5.13;;;;;;;8.56;82.56;100073.69;4996791;27;20049;-62
2022/10/22 03:41:33;;;;;;;10.52;5.78;;;;;;;8.61;82.79;100071.88;4968810;27;20063;-62
2022/10/22 03:44:42;;;;;;;8.00;5.60;;;;;;;8.79;83.25;100054.31;4947857;27;20074;-63
2022/10/22 03:50:32;;;;;;;9.25;5.15;;;;;;;8.66;82.87;100078.75;4973010;27;20065;-62
2022/10/22 03:53:12;;;;;;;7.45;5.05;;;;;;;8.53;84.05;100078.91;4975743;27;20052;-62
2022/10/22 03:56:01;;;;;;;8.85;5.30;;;;;;;8.51;85.24;100065.06;4999905;27;20052;-62
2022/10/22 03:58:52;;;;;;;8.35;5.35;;;;;;;8.32;84.24;100053.06;4956036;27;20521;-64
2022/10/22 04:01:29;;;;;;;14.65;6.63;;;;;;;8.40;85.66;100066.91;4984532;27;20047;-63
2022/10/22 04:04:10;;;;;;;14.23;7.82;;;;;;;8.46;85.92;100061.59;4975111;27;20108;-63
2022/10/22 04:06:55;;;;;;;6.35;4.95;;;;;;;8.45;85.54;100051.22;4904311;27;20471;-63
2022/10/22 04:09:39;;;;;;;8.82;5.25;;;;;;;8.44;86.20;100052.97;4976446;27;20039;-63
2022/10/22 04:12:18;;;;;;;10.23;4.72;;;;;;;8.47;86.52;100052.09;4960719;27;20054;-63
2022/10/22 04:14:58;;;;;;;11.18;5.28;;;;;;;8.51;86.92;100049.44;4977807;27;20100;-63
2022/10/22 04:17:58;;;;;;;7.88;4.68;;;;;;;8.40;87.13;100046.06;4920098;28;20058;-62
2022/10/22 04:20:48;;;;;;;7.82;5.10;;;;;;;8.34;88.00;100046.13;4923143;27;20043;-61
2022/10/22 04:23:34;;;;;;;6.97;4.72;;;;;;;8.37;88.34;100041.72;4906972;28;20031;-61
2022/10/22 04:26:20;;;;;;;;;;;;;;;8.33;87.83;100044.38;4938491;28;20060;-62
2022/10/22 04:29:14;;;;;;;4.75;3.80;;;;;;;8.28;88.18;100044.41;4979813;27;19923;-63
2022/10/22 04:32:11;;;;;;;8.77;4.70;;;;;;;8.14;88.48;100044.56;4971484;27;20072;-63
2022/10/22 04:34:51;;;;;;;7.82;4.32;;;;;;;8.04;88.78;100032.53;4990392;27;20061;-61
2022/10/22 04:37:37;;;;;;;7.72;3.72;;;;;;;8.04;88.68;100032.53;4958213;27;20065;-63
2022/10/22 04:40:21;;;;;;;6.97;4.00;;;;;;;7.96;88.79;100034.31;4981367;27;20069;-62
2022/10/22 04:45:56;;;;;;;6.38;4.40;;;;;;;7.87;89.48;100018.81;4965012;27;20304;-63
2022/10/22 04:48:39;;;;;;;8.75;4.32;;;;;;;7.91;89.15;100025.69;4966327;27;20061;-62
2022/10/22 04:54:16;;;;;;;6.85;5.05;;;;;;;7.72;89.60;100025.88;4945117;28;20062;-62
2022/10/22 04:57:00;;;;;;;6.97;5.40;;;;;;;7.72;90.51;100028.47;4960202;27;20159;-63
2022/10/22 04:59:37;;;;;;;11.95;5.57;;;;;;;7.65;90.55;100026.81;4985932;27;20053;-63
2022/10/22 05:02:21;;;;;;;11.80;5.35;;;;;;;7.60;91.03;100025.97;4961874;27;20064;-62
2022/10/22 05:05:19;;;;;;;10.02;5.43;;;;;;;7.54;91.42;100026.03;4955762;27;20074;-62
2022/10/22 05:08:00;;;;;;;9.40;5.68;;;;;;;7.55;92.04;100032.94;4963094;27;20054;-62
2022/10/22 05:10:50;;;;;;;8.48;5.30;;;;;;;7.54;92.18;100016.50;4962892;27;20051;-61
2022/10/22 05:16:30;;;;;;;11.25;7.35;;;;;;;7.52;92.45;100032.97;4903534;28;20035;-62
2022/10/22 05:19:14;;;;;;;6.10;4.85;;;;;;;7.44;92.42;100029.56;4948944;27;20047;-62
2022/10/22 05:21:57;;;;;;;8.60;5.70;;;;;;;7.15;93.15;99986.47;5007308;27;20047;-61
2022/10/22 05:24:35;;;;;;;9.35;5.40;;;;;;;7.20;93.74;99987.28;4936501;27;20130;-62
2022/10/22 05:27:20;;;;;;;6.85;5.07;;;;;;;7.40;93.88;100039.13;4951983;27;20046;-62
2022/10/22 05:30:15;;;;;;;7.55;5.18;;;;;;;7.32;93.96;100036.59;4945214;28;20047;-62
2022/10/22 05:33:03;;;;;;;8.05;5.28;;;;;;;7.25;94.45;100045.28;4945797;27;20039;-63
2022/10/22 05:36:06;;;;;;;8.43;5.75;;;;;;;7.14;94.74;100034.13;4939575;27;20062;-62
2022/10/22 05:39:00;;;;;;;7.45;4.97;;;;;;;7.12;94.98;100048.84;4964817;27;20050;-62
2022/10/22 05:42:18;;;;;;;11.52;5.28;;;;;;;7.05;95.91;100031.56;4953508;27;20047;-62
2022/10/22 05:45:05;;;;;;;9.05;5.80;;;;;;;7.04;96.28;100050.59;4940923;28;20120;-61
2022/10/22 05:47:45;;;;;;;9.65;5.28;;;;;;;6.97;96.52;100048.94;4941178;27;20043;-62
2022/10/22 05:57:11;;;;;;;10.52;5.00;;;;;;;6.76;99.22;100055.06;4991546;27;20062;-63
2022/10/22 06:00:06;;;;;;;8.98;5.40;;;;;;;6.65;99.48;100042.13;4961792;27;20056;-63
2022/10/22 06:02:57;;;;;;;9.27;5.22;;;;;;;6.44;100.00;100028.38;4990193;27;20047;-62
2022/10/22 06:05:53;;;;;;;8.90;5.15;;;;;;;6.65;100.00;100073.28;4942599;28;20093;-63
2022/10/22 06:08:38;;;;;;;7.00;4.93;;;;;;;6.64;100.00;100084.53;4943089;28;20049;-63
2022/10/22 06:11:16;;;;;;;6.20;5.05;;;;;;;6.36;100.00;100040.50;4912358;28;20346;-62
2022/10/22 06:13:55;;;;;;;8.90;5.57;;;;;;;6.57;100.00;100075.06;4942025;28;20098;-62
2022/10/22 06:16:38;;;;;;;9.80;5.88;;;;;;;6.69;100.00;100088.00;4969927;27;20047;-61
2022/10/22 06:23:29;;;;;;;8.63;5.47;;;;;;;6.56;100.00;100083.69;4898216;28;20453;-63
2022/10/22 06:26:11;;;;;;;9.02;5.82;;;;;;;6.46;100.00;100068.16;4890026;28;20134;-63
2022/10/22 06:28:59;;;;;;;9.85;6.85;;;;;;;6.50;100.00;100078.53;4898072;28;20084;-63
2022/10/22 06:31:45;;;;;;;10.40;6.40;;;;;;;6.51;100.00;100077.66;4881164;28;20373;-63
2022/10/22 06:34:26;;;;;;;10.98;7.22;;;;;;;6.04;100.00;99992.16;4924888;28;20064;-64
2022/10/22 06:37:04;;;;;;;11.85;7.25;;;;;;;6.47;100.00;100074.22;4850195;28;20041;-62
2022/10/22 06:39:46;;;;;;;11.70;7.15;;;;;;;6.43;100.00;100075.94;4896599;28;20049;-63
2022/10/22 06:42:37;;;;;;;16.83;9.73;;;;;;;6.40;100.00;100073.38;4889867;28;20056;-62
2022/10/22 06:45:17;;;;;;;15.68;8.70;;;;;;;6.42;100.00;100066.44;4890667;28;20044;-62
2022/10/22 06:52:00;;;;;;;11.40;6.05;;;;;;;6.46;100.00;100057.78;4768606;28;20052;-62
2022/10/22 06:54:48;;;;;;;9.10;6.38;;;;;;;6.45;100.00;100050.84;4781773;28;20047;-62
2022/10/22 06:57:30;;;;;;;11.40;6.43;;;;;;;6.44;100.00;100023.19;4780971;29;20050;-63
2022/10/22 07:00:11;;;;;;;8.45;6.10;;;;;;;6.39;100.00;100019.75;4838456;28;20109;-62
2022/10/22 07:03:01;;;;;;;10.07;6.35;;;;;;;6.39;100.00;100017.16;4857813;28;20078;-62
2022/10/22 07:05:52;;;;;;;10.30;6.72;;;;;;;6.40;100.00;100024.06;4839049;28;20670;-63
2022/10/22 07:08:31;;;;;;;8.32;5.38;;;;;;;6.39;100.00;100039.63;4859770;28;20049;-63
2022/10/22 07:11:25;;;;;;;8.18;5.47;;;;;;;6.36;100.00;100027.50;4866667;28;20046;-63
2022/10/22 07:14:15;;;;;;;11.52;5.93;;;;;;;6.36;100.00;100030.09;4874079;28;20049;-63
2022/10/22 07:16:54;;;;;;;15.52;7.22;;;;;;;6.42;100.00;100039.63;4864785;28;21383;-62
2022/10/22 07:22:30;;;;;;;20.95;7.82;;;;;;;6.31;100.00;100047.41;4859276;28;20058;-63
2022/10/22 07:25:06;;;;;;;12.60;5.13;;;;;;;6.26;100.00;100033.59;4855379;28;20097;-63
2022/10/22 07:28:04;;;;;;;6.28;4.60;;;;;;;6.05;100.00;100000.81;4875797;28;20046;-62
2022/10/22 07:30:41;;;;;;;5.82;4.20;;;;;;;6.24;100.00;100030.13;4960867;27;20806;-63
2022/10/22 07:33:24;;;;;;;6.03;4.60;;;;;;;6.21;100.00;100030.16;4957276;27;20053;-63
2022/10/22 07:36:45;;;;;;;6.57;4.75;;;;;;;6.17;100.00;100028.44;4979759;27;20111;-62
2022/10/22 07:39:30;;;;;;;11.30;5.25;;;;;;;6.16;100.00;100026.72;4953403;27;20084;-62
2022/10/22 07:42:08;;;;;;;7.93;5.00;;;;;;;6.21;100.00;100031.00;4972754;27;20383;-62
2022/10/22 07:44:51;;;;;;;10.80;6.30;;;;;;;6.24;100.00;100045.72;4935753;27;20039;-63
2022/10/22 07:47:28;;;;;;;8.75;5.35;;;;;;;6.23;100.00;100041.41;4983758;27;20314;-63
2022/10/22 07:50:06;;;;;;;6.32;4.22;;;;;;;6.15;100.00;100040.56;4978302;27;20064;-62
2022/10/22 07:59:05;;;;;;;6.25;4.40;;;;;;;6.20;100.00;100038.81;4948961;27;21020;-64
2022/10/22 08:01:47;;;;;;;5.18;3.72;;;;;;;6.24;100.00;100045.72;4912168;27;20382;-63
2022/10/22 08:04:28;;;;;;;6.75;4.20;;;;;;;6.24;100.00;100037.94;4958455;27;20078;-62
2022/10/22 08:07:13;;;;;;;4.35;3.38;;;;;;;6.19;100.00;100037.06;4974547;27;20474;-63
2022/10/22 08:10:04;;;;;;;6.60;3.33;;;;;;;6.12;100.00;100030.19;4937603;27;20047;-63
2022/10/22 08:12:42;;;;;;;3.00;2.60;;;;;;;6.17;100.00;100044.03;5005291;27;20413;-62
2022/10/22 08:15:24;;;;;;;5.10;2.20;;;;;;;6.13;100.00;100042.28;4964861;27;20047;-62
2022/10/22 08:18:29;;;;;;;3.55;2.08;;;;;;;6.10;100.00;100047.50;4971205;27;20138;-61
2022/10/22 08:21:10;;;;;;;4.13;2.03;;;;;;;6.19;100.00;100047.44;4893358;28;20043;-62
2022/10/22 08:23:51;;;;;;;6.75;3.28;;;;;;;6.26;100.00;100043.97;4879400;28;20054;-62
2022/10/22 08:26:30;;;;;;;4.40;3.17;;;;;;;6.24;100.00;100036.22;4969847;27;20059;-61
2022/10/22 08:29:09;;;;;;;4.70;2.72;;;;;;;6.25;100.00;100037.94;4963472;27;20043;-61
2022/10/22 08:32:32;;;;;;;4.15;2.90;;;;;;;6.32;100.00;100028.41;4985086;27;20042;-62
2022/10/22 08:35:14;;;;;;;6.57;3.95;;;;;;;6.34;100.00;100026.69;4972160;27;20039;-62
2022/10/22 08:37:57;;;;;;;5.78;2.75;;;;;;;6.31;100.00;100031.00;4968235;27;20047;-61
2022/10/22 08:41:04;;;;;;;4.72;3.35;;;;;;;6.27;100.00;100019.78;4957541;27;20189;-61
2022/10/22 08:44:17;;;;;;;5.65;3.42;;;;;;;6.31;100.00;100018.88;4970562;27;20112;-59
2022/10/22 08:47:17;;;;;;;4.78;2.95;;;;;;;6.33;100.00;100014.56;4913522;28;20048;-61
2022/10/22 08:49:56;;;;;;;3.80;2.60;;;;;;;6.16;100.00;99992.97;4907722;28;20099;-60
2022/10/22 08:52:48;;;;;;;4.50;3.13;;;;;;;6.14;100.00;100002.50;4886137;28;20055;-61
2022/10/22 08:55:33;;;;;;;4.07;3.03;;;;;;;6.20;100.00;100003.34;4912874;28;20048;-61
2022/10/22 09:01:46;;;;;;;7.75;3.67;;;;;;;6.32;100.00;99992.09;4889782;28;20102;-61
2022/10/22 09:04:37;;;;;;;5.32;3.70;;;;;;;6.34;100.00;99990.34;4860082;28;20054;-61
2022/10/22 09:07:19;;;;;;;5.05;3.10;;;;;;;6.34;100.00;99989.47;4865943;28;20056;-61
2022/10/22 09:10:06;;;;;;;4.78;3.30;;;;;;;6.30;100.00;99991.22;4841122;28;20089;-61
2022/10/22 09:12:49;;;;;;;6.75;4.20;;;;;;;6.29;100.00;99997.28;4845720;28;20223;-61
2022/10/22 09:15:45;;;;;;;8.32;5.03;;;;;;;6.31;100.00;99999.84;4859267;28;20053;-61
2022/10/22 09:18:37;;;;;;;7.35;3.80;;;;;;;6.29;100.00;100007.66;4861528;28;20047;-61
2022/10/22 09:24:36;;;;;;;6.90;4.47;;;;;;;6.01;100.00;100002.53;4889553;28;20092;-62
2022/10/22 09:27:20;;;;;;;4.85;2.80;;;;;;;5.92;100.00;100007.72;4907058;28;20314;-62
2022/10/22 09:30:00;;;;;;;3.70;2.55;;;;;;;5.94;100.00;100015.50;4904458;28;20046;-63
2022/10/22 09:32:54;;;;;;;3.10;2.58;;;;;;;5.76;100.00;99985.25;4903213;28;20124;-60
2022/10/22 09:35:41;;;;;;;2.95;2.58;;;;;;;6.02;100.00;100014.63;4919898;28;20066;-62
2022/10/22 09:38:20;;;;;;;3.15;2.03;;;;;;;6.03;100.00;100020.69;4911722;28;20080;-61
2022/10/22 09:41:07;;;;;;;2.90;2.15;;;;;;;5.98;100.00;100018.09;4924705;28;20064;-61
2022/10/22 09:43:59;;;;;;;2.10;1.90;;;;;;;5.96;99.83;100013.78;4907391;28;20056;-62
2022/10/22 09:47:03;;;;;;;2.80;1.90;;;;;;;5.97;99.88;100016.38;4898996;28;20364;-62
2022/10/22 09:49:47;;;;;;;2.40;1.90;;;;;;;5.97;99.81;100013.78;4925533;28;20270;-62
2022/10/22 09:52:31;;;;;;;4.45;2.20;;;;;;;6.10;99.79;100021.53;4937166;28;20137;-62
2022/10/22 09:58:13;;;;;;;2.03;1.80;;;;;;;6.00;99.57;100025.88;4923854;27;20057;-61
2022/10/22 10:01:09;;;;;;;3.50;2.50;;;;;;;5.85;99.04;100021.53;4994914;27;20049;-62
2022/10/22 10:03:44;;;;;;;5.97;2.38;;;;;;;5.72;98.43;100025.03;4946886;27;20059;-61
2022/10/22 10:06:28;;;;;;;3.47;2.63;;;;;;;5.68;98.90;100028.47;4982598;27;20062;-62
2022/10/22 10:09:28;;;;;;;3.63;2.95;;;;;;;5.58;98.44;100025.88;4986728;27;20100;-62
2022/10/22 10:12:27;;;;;;;3.90;2.88;;;;;;;5.54;98.12;100029.34;4983188;27;20055;-59
2022/10/22 10:15:20;;;;;;;6.30;3.08;;;;;;;5.05;98.05;99969.72;4972828;27;20134;-60
2022/10/22 10:18:35;;;;;;;6.72;3.63;;;;;;;5.42;98.32;100047.47;4876225;28;20079;-60
2022/10/22 10:21:28;;;;;;;5.33;3.50;;;;;;;5.34;99.37;100055.25;4959638;27;20055;-60
2022/10/22 10:24:32;;;;;;;5.57;3.55;;;;;;;5.25;100.00;100065.56;4997734;27;20076;-60
2022/10/22 10:27:40;;;;;;;5.43;3.60;;;;;;;5.14;100.00;100057.78;4902151;27;20047;-62
2022/10/22 10:30:28;;;;;;;7.65;3.65;;;;;;;4.96;100.00;100048.22;4975535;27;20051;-61
2022/10/22 10:33:25;;;;;;;7.95;4.50;;;;;;;5.02;100.00;100059.47;4956954;27;20401;-61
2022/10/22 10:36:25;;;;;;;8.27;3.97;;;;;;;4.95;100.00;100056.88;4946457;28;20044;-62
2022/10/22 10:39:19;;;;;;;8.43;3.80;;;;;;;4.85;100.00;100038.72;4978733;27;20046;-61
2022/10/22 10:45:19;;;;;;;5.38;4.30;;;;;;;4.56;100.00;100000.63;4969986;27;20099;-62
2022/10/22 10:48:32;;;;;;;6.95;4.00;;;;;;;4.85;100.00;100049.06;4958826;28;20052;-61
2022/10/22 10:51:26;;;;;;;6.93;3.63;;;;;;;4.81;100.00;100048.19;4987246;27;20043;-62
2022/10/22 10:54:30;;;;;;;9.40;4.25;;;;;;;4.81;100.00;100057.69;4943910;27;20223;-62
2022/10/22 10:57:36;;;;;;;6.40;3.88;;;;;;;4.70;100.00;100035.19;4962730;27;20058;-61
2022/10/22 11:00:41;;;;;;;9.52;4.22;;;;;;;4.76;100.00;100048.16;4953039;27;20053;-61
2022/10/22 11:03:53;;;;;;;7.50;4.22;;;;;;;4.79;100.00;100049.03;4984027;27;20111;-62
2022/10/22 11:06:48;;;;;;;12.32;3.50;;;;;;;4.78;100.00;100043.00;4897614;27;20062;-61
2022/10/22 11:09:54;;;;;;;8.68;4.13;;;;;;;4.84;100.00;100049.91;4958553;27;20061;-61
2022/10/22 11:12:44;;;;;;;8.13;4.38;;;;;;;4.85;100.00;100054.25;4979061;27;20056;-62
2022/10/22 11:15:36;;;;;;;7.43;3.50;;;;;;;4.87;100.00;100055.13;4938195;27;20035;-62
2022/10/22 11:18:36;;;;;;;12.65;3.97;;;;;;;4.89;100.00;100055.97;4969917;27;20451;-61
2022/10/22 11:21:26;;;;;;;11.32;4.22;;;;;;;4.61;100.00;100004.09;4984918;27;20352;-62
2022/10/22 11:24:11;;;;;;;11.52;4.18;;;;;;;4.85;100.00;100046.47;4968910;27;20581;-62
2022/10/22 11:26:54;;;;;;;10.60;4.25;;;;;;;4.85;100.00;100049.06;4983569;27;20059;-61
2022/10/22 11:30:17;;;;;;;9.48;3.72;;;;;;;4.86;100.00;100041.28;4982637;27;20129;-63
2022/10/22 11:33:23;;;;;;;7.82;3.60;;;;;;;4.84;100.00;100047.31;4976204;27;20058;-61
2022/10/22 11:36:03;;;;;;;11.98;3.70;;;;;;;4.81;100.00;100047.31;4939917;27;20580;-60
2022/10/22 11:38:59;;;;;;;9.70;3.70;;;;;;;4.79;100.00;100038.69;4946972;27;20112;-61
2022/10/22 11:45:10;;;;;;;7.00;3.53;;;;;;;4.76;100.00;100042.97;4961283;27;20065;-60
2022/10/22 11:48:00;;;;;;;6.68;3.47;;;;;;;4.75;100.00;100041.25;4989450;27;20123;-61
2022/10/22 11:50:55;;;;;;;8.90;3.63;;;;;;;4.70;100.00;100032.63;4977700;27;20074;-61
2022/10/22 11:53:38;;;;;;;6.50;3.42;;;;;;;4.65;100.00;100025.69;4996056;27;20097;-60
2022/10/22 11:56:43;;;;;;;8.70;3.58;;;;;;;4.75;100.00;100050.75;4899228;28;20047;-61
2022/10/22 11:59:45;;;;;;;9.40;3.70;;;;;;;4.73;100.00;100050.75;4956171;27;20115;-61
2022/10/22 12:02:46;;;;;;;6.60;3.20;;;;;;;4.69;100.00;100048.13;4946782;27;20048;-60
2022/10/22 12:08:40;;;;;;;5.88;2.58;;;;;;;4.66;100.00;100059.34;4869184;28;20049;-61
2022/10/22 12:11:25;;;;;;;6.20;2.60;;;;;;;4.59;100.00;100046.38;4840383;28;20054;-59
2022/10/22 12:14:21;;;;;;;6.03;2.60;;;;;;;4.11;100.00;99981.47;4874305;28;20068;-60
2022/10/22 12:17:23;;;;;;;4.95;2.05;;;;;;;4.50;100.00;100057.56;4881268;28;20065;-60
2022/10/22 12:20:22;;;;;;;3.83;2.10;;;;;;;4.58;100.00;100076.56;4863330;28;20073;-60
2022/10/22 12:23:05;;;;;;;6.25;2.58;;;;;;;4.45;100.00;100061.84;4904235;28;20045;-59
2022/10/22 12:25:52;;;;;;;7.30;2.50;;;;;;;4.50;100.00;100067.91;4790802;28;20042;-60
2022/10/22 12:28:45;;;;;;;7.43;2.60;;;;;;;4.45;100.00;100090.28;4866992;28;20812;-61
2022/10/22 12:31:24;;;;;;;4.50;2.42;;;;;;;4.16;100.00;100028.91;4830109;28;20069;-60
2022/10/22 12:34:24;;;;;;;6.95;2.67;;;;;;;4.44;100.00;100080.78;4890553;28;20121;-60
2022/10/22 12:37:20;;;;;;;5.85;2.65;;;;;;;4.44;100.00;100085.97;4872829;28;20768;-61
2022/10/22 12:39:58;;;;;;;6.18;3.55;;;;;;;4.41;100.00;100088.53;4884440;28;20049;-60
2022/10/22 12:42:57;;;;;;;7.27;2.93;;;;;;;4.41;100.00;100093.72;4893236;28;20045;-60
2022/10/22 12:45:37;;;;;;;4.40;2.50;;;;;;;4.34;100.00;100092.78;4979112;27;20499;-61
2022/10/22 12:48:18;;;;;;;9.35;3.47;;;;;;;4.33;100.00;100102.28;4969735;27;20104;-60
2022/10/22 12:51:06;;;;;;;5.07;2.60;;;;;;;4.31;100.00;100093.66;4992813;27;20082;-60
2022/10/22 12:54:02;;;;;;;5.35;2.50;;;;;;;4.27;100.00;100096.22;4989506;27;20110;-61
2022/10/22 12:56:41;;;;;;;6.30;3.17;;;;;;;4.22;100.00;100098.78;4964344;27;20047;-62
2022/10/22 12:59:34;;;;;;;5.90;2.40;;;;;;;4.22;100.00;100098.78;4986544;27;20039;-61
2022/10/22 13:14:31;;;;;;;5.97;2.95;;;;;;;4.07;100.00;100109.03;4942269;28;20123;-60
2022/10/22 13:17:43;;;;;;;6.50;2.72;;;;;;;3.98;100.00;100098.59;4907519;28;20063;-61
2022/10/22 13:20:23;;;;;;;4.43;2.30;;;;;;;4.00;100.00;100102.06;4925271;28;20073;-59
2022/10/22 13:26:26;;;;;;;2.90;1.92;;;;;;;3.93;100.00;100089.94;4961742;27;20081;-59
2022/10/22 13:29:29;;;;;;;5.25;2.20;;;;;;;3.93;100.00;100095.97;4927054;28;20261;-59
2022/10/22 13:38:26;;;;;;;7.97;2.55;;;;;;;3.81;100.00;100093.28;4955689;28;20091;-58
2022/10/22 13:41:32;;;;;;;5.10;2.45;;;;;;;3.89;100.00;100092.50;4925453;28;20054;-59
2022/10/22 13:44:11;;;;;;;11.38;2.80;;;;;;;3.80;100.00;100084.66;4922335;28;20045;-60
2022/10/22 13:47:14;;;;;;;4.30;2.25;;;;;;;3.84;100.00;100094.19;4906355;28;20059;-58
2022/10/22 13:49:46;;;;;;;4.53;1.60;;;;;;;3.82;100.00;100098.47;4929620;28;20266;-59
2022/10/22 13:53:00;;;;;;;4.47;1.70;;;;;;;3.78;100.00;100083.78;4909100;28;20390;-59
2022/10/22 13:55:50;;;;;;;7.45;1.83;;;;;;;3.71;100.00;100079.41;4885271;28;20045;-59
2022/10/22 13:58:28;;;;;;;;;;;;;;;3.69;100.00;100075.94;4938370;28;20074;-58
2022/10/22 14:01:26;;;;;;;2.47;1.50;;;;;;;3.67;100.00;100068.19;4907108;28;19922;-58
2022/10/22 14:04:05;;;;;;;5.72;1.50;;;;;;;3.65;100.00;100074.22;4900643;28;20052;-59
2022/10/22 14:06:47;;;;;;;3.20;1.23;;;;;;;3.64;100.00;100072.47;4944386;28;20060;-59
2022/10/22 14:09:30;;;;;;;1.80;1.13;;;;;;;3.63;100.00;100078.50;4917081;28;20051;-58
2022/10/22 14:15:25;;;;;;;2.17;1.30;;;;;;;3.62;100.00;100069.00;4913443;28;20059;-60
2022/10/22 14:18:10;;;;;;;2.42;1.00;;;;;;;3.54;100.00;100066.34;4938279;28;20511;-60
2022/10/22 14:21:21;;;;;;;3.22;1.00;;;;;;;3.41;100.00;100049.88;4939144;28;20134;-59
2022/10/22 14:24:15;;;;;;;1.85;1.17;;;;;;;3.49;100.00;100072.31;4877254;28;20040;-59
2022/10/22 14:27:05;;;;;;;1.45;1.00;;;;;;;3.46;100.00;100074.03;4947985;28;20050;-59
2022/10/22 14:29:49;;;;;;;3.35;1.00;;;;;;;3.40;100.00;100066.22;4941321;28;20052;-59
2022/10/22 14:32:47;;;;;;;1.48;1.10;;;;;;;3.34;100.00;100066.16;4900891;28;20049;-59
2022/10/22 14:35:30;;;;;;;1.20;1.10;;;;;;;3.31;100.00;100079.03;4916769;28;20039;-60
2022/10/22 14:38:45;;;;;;;1.60;0.90;;;;;;;3.26;100.00;100070.38;4899478;28;20063;-58
2022/10/22 14:41:24;;;;;;;4.25;1.05;;;;;;;3.27;100.00;100076.41;4957139;27;20091;-60
2022/10/22 14:50:56;;;;;;;4.07;1.00;;;;;;;3.15;100.00;100077.19;4900882;28;20048;-58
2022/10/22 14:53:40;;;;;;;1.38;0.93;;;;;;;3.10;100.00;100074.53;4909092;28;20276;-60
2022/10/22 14:56:20;;;;;;;1.15;0.98;;;;;;;3.08;100.00;100076.22;4888916;28;20072;-59
2022/10/22 14:59:12;;;;;;;1.73;1.00;;;;;;;3.06;100.00;100077.06;4899230;28;20056;-59